Time;durP1;ratioP1;P1;durP2;ratioP2;P2;SDS_P1;SDS_P2;PMS_P1;PMS_P2;Temp;Humidity;BMP_temperature;BMP_pressure;BME280_temperature;BME280_humidity;BME280_pressure;Samples;Min_cycle;Max_cycle;Signal;HPM_P1;HPM_P2
2023/05/18 00:00:59;;;;;;;19.27;10.95;;;;;;;;;;2056612;28;20065;-93
2023/05/18 00:02:00;;;;;;;16.55;8.15;;;;;;;;;;2056319;28;20018;-92
2023/05/18 00:03:02;;;;;;;16.92;9.98;;;;;;;;;;2056918;28;20036;-94
2023/05/18 00:04:03;;;;;;;15.82;9.23;;;;;;;;;;2058152;28;20493;-93
2023/05/18 00:05:03;;;;;;;14.88;8.95;;;;;;;;;;2060110;28;20061;-94
2023/05/18 00:06:06;;;;;;;17.38;9.93;;;;;;;;;;2056664;28;20023;-92
2023/05/18 00:07:06;;;;;;;15.70;10.02;;;;;;;;;;2048518;28;20448;-94
2023/05/18 00:08:07;;;;;;;19.17;9.68;;;;;;;;;;2056410;28;20030;-94
2023/05/18 00:09:07;;;;;;;15.50;9.38;;;;;;;;;;2048208;28;20083;-93
2023/05/18 00:10:10;;;;;;;18.90;10.85;;;;;;;;;;2056744;28;20026;-94
2023/05/18 00:11:10;;;;;;;14.23;10.40;;;;;;;;;;2056431;28;20532;-94
2023/05/18 00:12:11;;;;;;;14.45;9.90;;;;;;;;;;2048692;29;20027;-94
2023/05/18 00:13:11;;;;;;;20.55;12.13;;;;;;;;;;2056599;28;20030;-95
2023/05/18 00:14:12;;;;;;;18.67;9.60;;;;;;;;;;2048706;28;20027;-94
2023/05/18 00:15:12;;;;;;;21.27;10.05;;;;;;;;;;2048830;29;20102;-93
2023/05/18 00:16:14;;;;;;;19.67;9.30;;;;;;;;;;2048607;28;20129;-92
2023/05/18 00:17:15;;;;;;;14.38;9.23;;;;;;;;;;2056436;28;20067;-93
2023/05/18 00:18:15;;;;;;;13.77;8.52;;;;;;;;;;2048606;29;20411;-93
2023/05/18 00:19:16;;;;;;;17.17;8.82;;;;;;;;;;2048738;28;20043;-94
2023/05/18 00:20:17;;;;;;;13.68;8.52;;;;;;;;;;2046928;28;20410;-94
2023/05/18 00:21:18;;;;;;;13.98;9.02;;;;;;;;;;2048721;28;20565;-94
2023/05/18 00:22:25;;;;;;;14.10;8.92;;;;;;;;;;1914449;28;10249476;-93
2023/05/18 00:23:31;;;;;;;20.17;10.18;;;;;;;;;;2057256;28;20260;-93
2023/05/18 00:24:32;;;;;;;17.08;9.85;;;;;;;;;;2056396;28;20092;-93
2023/05/18 00:25:32;;;;;;;15.50;9.88;;;;;;;;;;2056471;28;20517;-94
2023/05/18 00:26:32;;;;;;;31.67;15.80;;;;;;;;;;2056334;28;20069;-92
2023/05/18 00:27:33;;;;;;;23.25;12.45;;;;;;;;;;2048246;29;20523;-93
2023/05/18 00:28:33;;;;;;;27.95;15.88;;;;;;;;;;2048498;29;20407;-95
2023/05/18 00:29:34;;;;;;;20.60;11.95;;;;;;;;;;2048446;28;20031;-93
2023/05/18 00:30:34;;;;;;;42.10;22.00;;;;;;;;;;2048755;28;20086;-93
2023/05/18 00:31:37;;;;;;;25.02;14.90;;;;;;;;;;2056566;28;20088;-94
2023/05/18 00:32:37;;;;;;;20.48;9.77;;;;;;;;;;2048571;28;20028;-94
2023/05/18 00:33:38;;;;;;;16.30;10.55;;;;;;;;;;2049024;29;20139;-94
2023/05/18 00:34:38;;;;;;;21.05;10.40;;;;;;;;;;2048883;29;20185;-93
2023/05/18 00:35:38;;;;;;;15.38;9.45;;;;;;;;;;2056764;28;20027;-94
2023/05/18 00:36:40;;;;;;;18.65;10.73;;;;;;;;;;2048602;29;20034;-93
2023/05/18 00:37:40;;;;;;;16.83;9.00;;;;;;;;;;2048786;28;20043;-93
2023/05/18 00:38:41;;;;;;;15.23;8.70;;;;;;;;;;2057710;28;20023;-93
2023/05/18 00:39:42;;;;;;;17.70;9.07;;;;;;;;;;2056580;28;20022;-94
2023/05/18 00:40:43;;;;;;;14.32;9.10;;;;;;;;;;2048906;29;20455;-94
2023/05/18 00:41:43;;;;;;;14.10;8.63;;;;;;;;;;2048681;29;20542;-93
2023/05/18 00:42:43;;;;;;;13.68;8.60;;;;;;;;;;2056428;28;20031;-93
2023/05/18 00:43:44;;;;;;;12.27;8.63;;;;;;;;;;2056783;28;20058;-94
2023/05/18 00:44:44;;;;;;;13.93;9.32;;;;;;;;;;2057253;28;20101;-92
2023/05/18 00:45:45;;;;;;;12.73;8.45;;;;;;;;;;2056619;28;20089;-94
2023/05/18 00:46:45;;;;;;;12.50;8.40;;;;;;;;;;2048715;29;20058;-94
2023/05/18 00:47:47;;;;;;;11.98;7.93;;;;;;;;;;2056562;28;20046;-93
2023/05/18 00:48:49;;;;;;;12.15;8.02;;;;;;;;;;2057495;28;20023;-93
2023/05/18 00:49:50;;;;;;;13.57;8.05;;;;;;;;;;2057332;28;20022;-93
2023/05/18 00:50:51;;;;;;;14.35;8.40;;;;;;;;;;2056597;28;20102;-93
2023/05/18 00:51:52;;;;;;;16.70;8.90;;;;;;;;;;2056349;28;20022;-94
2023/05/18 00:52:53;;;;;;;14.98;8.95;;;;;;;;;;2048313;28;20416;-93
2023/05/18 00:53:55;;;;;;;15.32;8.68;;;;;;;;;;2048208;29;20111;-92
2023/05/18 00:54:57;;;;;;;16.98;9.27;;;;;;;;;;2057043;28;20019;-93
2023/05/18 00:55:57;;;;;;;15.50;9.13;;;;;;;;;;2051595;28;20020;-93
2023/05/18 00:57:01;;;;;;;17.15;10.07;;;;;;;;;;2051038;29;20455;-93
2023/05/18 00:58:01;;;;;;;12.38;9.30;;;;;;;;;;2048715;28;20020;-94
2023/05/18 00:59:02;;;;;;;14.82;9.50;;;;;;;;;;2048233;28;20129;-94
2023/05/18 01:00:06;;;;;;;14.90;9.20;;;;;;;;;;2048553;29;20037;-93
2023/05/18 01:01:10;;;;;;;14.55;9.50;;;;;;;;;;2048309;28;20038;-95
2023/05/18 01:02:13;;;;;;;16.90;9.45;;;;;;;;;;2048864;28;20061;-95
2023/05/18 01:03:14;;;;;;;14.77;9.10;;;;;;;;;;2056819;28;20106;-96
2023/05/18 01:04:14;;;;;;;20.48;10.73;;;;;;;;;;2048760;29;20035;-95
2023/05/18 01:05:16;;;;;;;13.75;9.13;;;;;;;;;;2048716;29;20507;-95
2023/05/18 01:06:17;;;;;;;19.83;10.65;;;;;;;;;;2056600;28;20019;-96
2023/05/18 01:07:21;;;;;;;15.70;9.98;;;;;;;;;;2056698;28;20027;-96
2023/05/18 01:08:26;;;;;;;16.88;9.60;;;;;;;;;;2048978;28;20027;-95
2023/05/18 01:09:26;;;;;;;15.82;9.88;;;;;;;;;;2048848;28;20165;-96
2023/05/18 01:10:31;;;;;;;14.90;9.90;;;;;;;;;;2048345;29;20037;-95
2023/05/18 01:12:04;;;;;;;25.35;13.50;;;;;;;;;;2049056;28;20497;-95
2023/05/18 01:13:11;;;;;;;13.82;9.65;;;;;;;;;;2052794;28;20029;-95
2023/05/18 01:14:28;;;;;;;14.23;9.60;;;;;;;;;;2049676;28;20118;-95
2023/05/18 01:15:36;;;;;;;14.85;9.35;;;;;;;;;;2056642;28;20026;-95
2023/05/18 01:16:43;;;;;;;15.48;9.75;;;;;;;;;;2049390;28;20019;-95
2023/05/18 01:17:59;;;;;;;15.00;9.00;;;;;;;;;;2049441;28;20089;-94
2023/05/18 01:19:09;;;;;;;12.57;8.00;;;;;;;;;;2056530;28;20034;-96
2023/05/18 01:20:14;;;;;;;14.45;8.60;;;;;;;;;;2049627;28;20483;-95
2023/05/18 01:21:27;;;;;;;17.15;9.02;;;;;;;;;;2049133;28;20028;-95
2023/05/18 01:22:49;;;;;;;11.02;7.95;;;;;;;;;;2049831;28;20066;-96
2023/05/18 01:23:59;;;;;;;12.65;8.40;;;;;;;;;;2051303;28;20015;-96
2023/05/18 01:25:18;;;;;;;13.63;7.60;;;;;;;;;;2056493;28;20568;-95
2023/05/18 01:26:36;;;;;;;12.68;7.82;;;;;;;;;;2051100;28;20025;-95
2023/05/18 01:27:41;;;;;;;12.90;8.27;;;;;;;;;;2050753;28;20138;-95
2023/05/18 01:28:45;;;;;;;12.90;8.60;;;;;;;;;;2056646;28;20031;-95
2023/05/18 01:29:47;;;;;;;14.70;8.98;;;;;;;;;;2048693;28;20086;-94
2023/05/18 01:30:49;;;;;;;17.05;8.80;;;;;;;;;;2048441;28;20399;-95
2023/05/18 01:31:50;;;;;;;18.15;9.18;;;;;;;;;;2056535;28;20081;-95
2023/05/18 01:32:53;;;;;;;15.00;9.35;;;;;;;;;;2056450;28;20101;-94
2023/05/18 01:33:56;;;;;;;17.73;9.00;;;;;;;;;;2048616;28;20198;-94
2023/05/18 01:34:57;;;;;;;15.02;9.05;;;;;;;;;;2048737;28;20114;-95
2023/05/18 01:35:57;;;;;;;15.55;9.45;;;;;;;;;;2048583;29;20027;-94
2023/05/18 01:36:58;;;;;;;12.95;8.15;;;;;;;;;;2062294;28;20027;-96
2023/05/18 01:37:59;;;;;;;12.68;8.68;;;;;;;;;;2058307;28;20015;-94
2023/05/18 01:39:00;;;;;;;14.57;9.10;;;;;;;;;;2058633;28;20015;-95
2023/05/18 01:40:03;;;;;;;13.85;8.73;;;;;;;;;;2058680;28;20007;-95
2023/05/18 01:41:23;;;;;;;13.90;9.07;;;;;;;;;;2057914;28;20019;-94
2023/05/18 01:42:26;;;;;;;15.73;8.95;;;;;;;;;;2056923;28;20538;-94
2023/05/18 01:43:35;;;;;;;15.85;9.25;;;;;;;;;;2049829;28;20106;-95
2023/05/18 01:44:44;;;;;;;19.52;10.30;;;;;;;;;;2052638;28;20126;-96
2023/05/18 01:45:51;;;;;;;17.33;10.63;;;;;;;;;;2050381;28;20027;-95
2023/05/18 01:47:09;;;;;;;16.00;10.75;;;;;;;;;;2058625;28;20045;-95
2023/05/18 01:48:15;;;;;;;14.35;10.10;;;;;;;;;;2061100;28;20026;-94
2023/05/18 01:49:52;;;;;;;16.35;10.43;;;;;;;;;;2050457;28;20487;-95
2023/05/18 01:50:56;;;;;;;21.98;11.40;;;;;;;;;;2053034;28;20023;-95
2023/05/18 01:52:02;;;;;;;17.85;11.05;;;;;;;;;;2048669;28;20078;-94
2023/05/18 01:53:14;;;;;;;19.55;10.40;;;;;;;;;;2043639;28;20190;-93
2023/05/18 01:54:17;;;;;;;14.93;10.15;;;;;;;;;;2055330;28;20074;-95
2023/05/18 01:55:21;;;;;;;17.40;9.93;;;;;;;;;;2058597;28;20079;-96
2023/05/18 01:56:22;;;;;;;14.98;9.82;;;;;;;;;;2058074;28;20027;-96
2023/05/18 01:57:26;;;;;;;14.82;9.52;;;;;;;;;;2050254;28;20051;-95
2023/05/18 01:58:27;;;;;;;13.95;9.30;;;;;;;;;;2051009;28;20071;-96
2023/05/18 01:59:28;;;;;;;15.80;9.25;;;;;;;;;;2045753;28;20484;-96
2023/05/18 02:00:29;;;;;;;16.20;9.90;;;;;;;;;;2041029;29;20118;-96
2023/05/18 02:01:31;;;;;;;16.27;9.88;;;;;;;;;;2041943;29;20083;-96
2023/05/18 02:02:32;;;;;;;14.43;9.30;;;;;;;;;;2040470;29;20388;-94
2023/05/18 02:03:32;;;;;;;18.33;10.63;;;;;;;;;;2040657;29;20099;-95
2023/05/18 02:04:34;;;;;;;15.02;10.05;;;;;;;;;;2040464;29;20084;-96
2023/05/18 02:05:34;;;;;;;16.67;10.43;;;;;;;;;;2048267;29;20027;-94
2023/05/18 02:06:35;;;;;;;13.35;9.82;;;;;;;;;;2040584;29;20119;-96
2023/05/18 02:07:36;;;;;;;15.75;9.20;;;;;;;;;;2040560;29;20114;-95
2023/05/18 02:08:37;;;;;;;15.48;9.45;;;;;;;;;;2040920;29;20376;-95
2023/05/18 02:09:37;;;;;;;16.02;9.85;;;;;;;;;;2048311;29;20034;-96
2023/05/18 02:10:38;;;;;;;13.60;9.15;;;;;;;;;;2048069;29;20519;-95
2023/05/18 02:11:38;;;;;;;14.63;9.38;;;;;;;;;;2040212;29;20031;-95
2023/05/18 02:12:41;;;;;;;14.98;9.18;;;;;;;;;;2041506;29;20110;-96
2023/05/18 02:13:42;;;;;;;13.90;9.15;;;;;;;;;;2041975;29;20492;-95
2023/05/18 02:14:42;;;;;;;19.58;9.60;;;;;;;;;;2041482;29;20034;-94
2023/05/18 02:15:43;;;;;;;14.77;8.88;;;;;;;;;;2049478;29;20062;-94
2023/05/18 02:16:45;;;;;;;16.85;8.65;;;;;;;;;;2041535;29;20015;-93
2023/05/18 02:17:46;;;;;;;10.80;8.07;;;;;;;;;;2049518;29;20119;-94
2023/05/18 02:18:47;;;;;;;13.23;8.40;;;;;;;;;;2041534;29;20082;-94
2023/05/18 02:19:47;;;;;;;14.38;9.20;;;;;;;;;;2041604;29;20514;-94
2023/05/18 02:20:48;;;;;;;13.38;8.68;;;;;;;;;;2041067;29;20035;-93
2023/05/18 02:21:49;;;;;;;13.05;8.18;;;;;;;;;;2041472;29;20055;-95
2023/05/18 02:22:49;;;;;;;13.57;9.18;;;;;;;;;;2041471;29;20190;-94
2023/05/18 02:23:50;;;;;;;14.07;9.10;;;;;;;;;;2041406;29;20115;-93
2023/05/18 02:24:50;;;;;;;14.75;8.23;;;;;;;;;;1696067;29;10139542;-94
2023/05/18 02:25:54;;;;;;;11.63;8.30;;;;;;;;;;2041449;29;20530;-95
2023/05/18 02:26:54;;;;;;;13.07;9.23;;;;;;;;;;2049127;29;20098;-93
2023/05/18 02:27:55;;;;;;;13.57;8.30;;;;;;;;;;2049514;29;20027;-95
2023/05/18 02:28:56;;;;;;;15.68;9.20;;;;;;;;;;1703346;29;10122749;-95
2023/05/18 02:29:56;;;;;;;13.00;8.77;;;;;;;;;;2041597;29;20064;-94
2023/05/18 02:31:10;;;;;;;14.45;8.95;;;;;;;;;;2049138;29;20034;-94
2023/05/18 02:32:11;;;;;;;16.27;8.57;;;;;;;;;;2048968;29;20086;-93
2023/05/18 02:33:11;;;;;;;12.48;8.05;;;;;;;;;;2049571;29;20360;-94
2023/05/18 02:34:14;;;;;;;13.77;9.18;;;;;;;;;;1698543;29;10256932;-94
2023/05/18 02:35:16;;;;;;;13.15;8.35;;;;;;;;;;2049860;28;20503;-94
2023/05/18 02:36:17;;;;;;;14.32;8.45;;;;;;;;;;2049385;29;20037;-94
2023/05/18 02:37:18;;;;;;;14.88;8.48;;;;;;;;;;2041753;29;20031;-95
2023/05/18 02:38:19;;;;;;;14.52;9.73;;;;;;;;;;2049646;28;20574;-96
2023/05/18 02:39:20;;;;;;;14.48;9.35;;;;;;;;;;2051372;28;20023;-95
2023/05/18 02:40:21;;;;;;;17.15;9.85;;;;;;;;;;2053857;29;20031;-94
2023/05/18 02:41:21;;;;;;;14.20;9.00;;;;;;;;;;2050035;29;20023;-95
2023/05/18 02:42:24;;;;;;;14.75;9.18;;;;;;;;;;2049475;29;20027;-95
2023/05/18 02:43:24;;;;;;;15.13;9.20;;;;;;;;;;2049196;28;20030;-94
2023/05/18 02:44:25;;;;;;;10.85;8.02;;;;;;;;;;2041377;29;20031;-95
2023/05/18 02:45:25;;;;;;;13.20;8.32;;;;;;;;;;2049429;29;20049;-94
2023/05/18 02:46:26;;;;;;;12.05;8.65;;;;;;;;;;2041313;29;20451;-94
2023/05/18 02:47:27;;;;;;;15.57;8.95;;;;;;;;;;2041330;29;20068;-94
2023/05/18 02:48:29;;;;;;;12.45;8.25;;;;;;;;;;2049268;29;20058;-94
2023/05/18 02:49:29;;;;;;;14.30;8.20;;;;;;;;;;2041226;29;20039;-94
2023/05/18 02:50:30;;;;;;;11.43;8.18;;;;;;;;;;2041287;29;20036;-94
2023/05/18 02:51:31;;;;;;;13.90;8.60;;;;;;;;;;2049453;29;20031;-93
2023/05/18 02:52:32;;;;;;;10.82;8.23;;;;;;;;;;2049255;29;20049;-93
2023/05/18 02:53:33;;;;;;;13.68;8.93;;;;;;;;;;2049254;29;20046;-94
2023/05/18 02:54:33;;;;;;;13.85;9.00;;;;;;;;;;2041232;29;20325;-94
2023/05/18 02:55:34;;;;;;;14.98;8.68;;;;;;;;;;2041198;29;20122;-95
2023/05/18 02:56:35;;;;;;;13.73;8.55;;;;;;;;;;2041270;29;20077;-94
2023/05/18 02:57:35;;;;;;;13.05;8.23;;;;;;;;;;2049177;29;20194;-93
2023/05/18 02:58:36;;;;;;;15.73;8.98;;;;;;;;;;2041130;29;20515;-93
2023/05/18 02:59:37;;;;;;;12.70;8.35;;;;;;;;;;2041060;29;20534;-94
2023/05/18 03:00:38;;;;;;;13.48;8.35;;;;;;;;;;2041189;29;20554;-94
2023/05/18 03:01:39;;;;;;;12.20;8.77;;;;;;;;;;2049074;29;20079;-91
2023/05/18 03:02:40;;;;;;;11.35;8.07;;;;;;;;;;2041107;29;20038;-93
2023/05/18 03:03:41;;;;;;;15.65;8.52;;;;;;;;;;2041222;29;20039;-94
2023/05/18 03:04:41;;;;;;;13.18;8.63;;;;;;;;;;2048836;29;20031;-93
2023/05/18 03:05:42;;;;;;;11.70;8.32;;;;;;;;;;2048934;28;20054;-94
2023/05/18 03:06:45;;;;;;;12.32;8.45;;;;;;;;;;2041095;29;20118;-94
2023/05/18 03:07:49;;;;;;;14.00;8.98;;;;;;;;;;2041398;29;20066;-94
2023/05/18 03:08:50;;;;;;;14.60;8.30;;;;;;;;;;2041615;29;20460;-93
2023/05/18 03:09:50;;;;;;;12.38;8.48;;;;;;;;;;2040980;29;20031;-93
2023/05/18 03:10:51;;;;;;;13.40;8.43;;;;;;;;;;2048878;29;20098;-94
2023/05/18 03:11:52;;;;;;;14.57;8.85;;;;;;;;;;2057748;28;20030;-93
2023/05/18 03:12:52;;;;;;;12.02;8.43;;;;;;;;;;2048889;29;20035;-94
2023/05/18 03:13:53;;;;;;;11.57;8.30;;;;;;;;;;2048825;29;20086;-94
2023/05/18 03:14:54;;;;;;;13.65;8.60;;;;;;;;;;2057565;28;20070;-94
2023/05/18 03:15:55;;;;;;;13.18;8.65;;;;;;;;;;2048758;29;20027;-94
2023/05/18 03:16:56;;;;;;;11.68;8.07;;;;;;;;;;2041273;29;20032;-95
2023/05/18 03:18:00;;;;;;;13.75;8.18;;;;;;;;;;2049994;29;20019;-93
2023/05/18 03:19:01;;;;;;;13.57;8.13;;;;;;;;;;2049398;28;20031;-94
2023/05/18 03:20:03;;;;;;;12.23;8.52;;;;;;;;;;2051029;29;20038;-94
2023/05/18 03:21:04;;;;;;;12.63;8.68;;;;;;;;;;2041817;29;20047;-94
2023/05/18 03:22:04;;;;;;;11.32;7.88;;;;;;;;;;2041678;29;20027;-95
2023/05/18 03:23:05;;;;;;;14.93;9.18;;;;;;;;;;2041229;29;20027;-93
2023/05/18 03:24:05;;;;;;;13.00;8.02;;;;;;;;;;2049040;28;20066;-95
2023/05/18 03:25:06;;;;;;;12.05;8.57;;;;;;;;;;2042162;29;20047;-95
2023/05/18 03:26:10;;;;;;;12.88;9.18;;;;;;;;;;2035315;29;20127;-94
2023/05/18 03:27:11;;;;;;;14.98;9.05;;;;;;;;;;2046131;29;20032;-95
2023/05/18 03:28:12;;;;;;;13.00;8.68;;;;;;;;;;2041309;29;20118;-94
2023/05/18 03:29:12;;;;;;;12.65;8.15;;;;;;;;;;2049257;29;20035;-94
2023/05/18 03:30:13;;;;;;;15.88;8.60;;;;;;;;;;2050647;29;20034;-94
2023/05/18 03:31:13;;;;;;;12.63;8.70;;;;;;;;;;2053369;29;20090;-95
2023/05/18 03:32:14;;;;;;;15.25;8.50;;;;;;;;;;2055359;29;20073;-92
2023/05/18 03:33:14;;;;;;;15.20;8.80;;;;;;;;;;2045472;29;20039;-93
2023/05/18 03:34:15;;;;;;;15.60;8.73;;;;;;;;;;2044477;29;20071;-92
2023/05/18 03:35:15;;;;;;;14.98;9.57;;;;;;;;;;2041867;29;20031;-93
2023/05/18 03:36:16;;;;;;;13.57;8.80;;;;;;;;;;2048816;29;20075;-94
2023/05/18 03:37:16;;;;;;;15.70;8.45;;;;;;;;;;2040685;29;20163;-94
2023/05/18 03:38:17;;;;;;;11.80;8.07;;;;;;;;;;2042611;29;20067;-94
2023/05/18 03:39:17;;;;;;;12.90;8.70;;;;;;;;;;2041139;29;20034;-94
2023/05/18 03:40:19;;;;;;;15.05;8.73;;;;;;;;;;2041181;29;20047;-95
2023/05/18 03:41:20;;;;;;;15.70;9.45;;;;;;;;;;2049178;29;20139;-94
2023/05/18 03:42:21;;;;;;;14.10;9.13;;;;;;;;;;2041730;29;20028;-94
2023/05/18 03:43:24;;;;;;;16.10;9.43;;;;;;;;;;2041425;29;20411;-92
2023/05/18 03:44:25;;;;;;;15.40;9.18;;;;;;;;;;2051339;28;20106;-92
2023/05/18 03:45:25;;;;;;;12.70;8.88;;;;;;;;;;2043158;29;20042;-91
2023/05/18 03:46:26;;;;;;;14.48;9.27;;;;;;;;;;2042703;29;20015;-91
2023/05/18 03:47:26;;;;;;;15.05;8.68;;;;;;;;;;2051224;29;20466;-91
2023/05/18 03:48:27;;;;;;;13.77;8.55;;;;;;;;;;2050242;29;20046;-91
2023/05/18 03:49:30;;;;;;;15.80;8.95;;;;;;;;;;2049851;28;20028;-92
2023/05/18 03:50:31;;;;;;;15.95;9.43;;;;;;;;;;2059053;28;20026;-90
2023/05/18 03:51:31;;;;;;;13.82;9.48;;;;;;;;;;2050500;28;20452;-92
2023/05/18 03:52:33;;;;;;;17.13;8.73;;;;;;;;;;2043293;29;20031;-91
2023/05/18 03:53:35;;;;;;;13.15;8.77;;;;;;;;;;2050873;29;20038;-91
2023/05/18 03:54:35;;;;;;;14.77;9.55;;;;;;;;;;2043722;29;20035;-92
2023/05/18 03:55:36;;;;;;;12.55;9.02;;;;;;;;;;2051354;28;20537;-93
2023/05/18 03:56:36;;;;;;;17.45;10.25;;;;;;;;;;2058136;28;20372;-93
2023/05/18 03:57:37;;;;;;;15.95;9.70;;;;;;;;;;2049059;29;20084;-93
2023/05/18 03:58:38;;;;;;;15.20;9.90;;;;;;;;;;2049378;29;20035;-93
2023/05/18 03:59:38;;;;;;;14.57;10.48;;;;;;;;;;2049084;29;20066;-93
2023/05/18 04:00:39;;;;;;;16.63;9.05;;;;;;;;;;2041244;29;20054;-92
2023/05/18 04:01:43;;;;;;;11.65;7.97;;;;;;;;;;2049359;29;20098;-94
2023/05/18 04:02:43;;;;;;;12.13;7.63;;;;;;;;;;1703386;29;10249304;-93
2023/05/18 04:03:44;;;;;;;15.60;8.00;;;;;;;;;;2043863;29;20047;-92
2023/05/18 04:04:46;;;;;;;11.43;6.82;;;;;;;;;;2058183;28;20015;-93
2023/05/18 04:05:48;;;;;;;10.63;6.85;;;;;;;;;;2050814;28;20016;-92
2023/05/18 04:06:50;;;;;;;9.82;6.80;;;;;;;;;;2050689;28;20039;-94
2023/05/18 04:07:50;;;;;;;10.65;7.18;;;;;;;;;;2044912;29;20563;-94
2023/05/18 04:08:52;;;;;;;10.02;7.40;;;;;;;;;;2040908;29;20179;-92
2023/05/18 04:09:55;;;;;;;11.82;7.40;;;;;;;;;;2041419;29;20412;-94
2023/05/18 04:10:55;;;;;;;8.73;6.50;;;;;;;;;;2040928;29;20163;-94
2023/05/18 04:11:56;;;;;;;11.45;6.93;;;;;;;;;;2040883;29;20075;-94
2023/05/18 04:12:56;;;;;;;11.45;6.53;;;;;;;;;;2048615;29;20023;-94
2023/05/18 04:13:57;;;;;;;12.52;6.82;;;;;;;;;;2048581;29;20023;-94
2023/05/18 04:14:57;;;;;;;10.88;6.60;;;;;;;;;;2040457;29;20039;-94
2023/05/18 04:15:58;;;;;;;10.45;6.15;;;;;;;;;;2048327;29;20161;-92
2023/05/18 04:17:05;;;;;;;9.07;6.28;;;;;;;;;;2057356;28;20023;-94
2023/05/18 04:18:06;;;;;;;8.70;6.25;;;;;;;;;;2048415;29;20034;-92
2023/05/18 04:19:07;;;;;;;11.35;6.03;;;;;;;;;;2048790;28;20022;-94
2023/05/18 04:20:11;;;;;;;8.05;5.50;;;;;;;;;;2048882;29;20078;-94
2023/05/18 04:21:12;;;;;;;7.80;5.65;;;;;;;;;;2055819;29;20031;-94
2023/05/18 04:22:12;;;;;;;9.88;6.03;;;;;;;;;;2050649;29;20043;-93
2023/05/18 04:23:13;;;;;;;11.48;5.68;;;;;;;;;;2058781;28;20023;-94
2023/05/18 04:24:15;;;;;;;8.38;5.65;;;;;;;;;;2067067;28;20057;-93
2023/05/18 04:25:16;;;;;;;7.60;5.50;;;;;;;;;;2057659;28;20023;-95
2023/05/18 04:26:18;;;;;;;10.35;6.15;;;;;;;;;;2043205;29;20030;-94
2023/05/18 04:27:19;;;;;;;7.70;5.30;;;;;;;;;;2041525;29;20083;-94
2023/05/18 04:28:19;;;;;;;7.43;4.95;;;;;;;;;;2048745;29;20062;-94
2023/05/18 04:29:20;;;;;;;9.73;5.57;;;;;;;;;;2040909;29;20119;-93
2023/05/18 04:30:23;;;;;;;9.20;5.10;;;;;;;;;;2048767;29;20031;-94
2023/05/18 04:31:25;;;;;;;7.43;5.43;;;;;;;;;;2049048;29;20031;-94
2023/05/18 04:32:29;;;;;;;7.55;5.40;;;;;;;;;;2041212;29;20045;-96
2023/05/18 04:33:30;;;;;;;9.57;5.15;;;;;;;;;;2041102;29;20027;-95
2023/05/18 04:34:36;;;;;;;5.78;4.55;;;;;;;;;;1687048;29;10390303;-95
2023/05/18 04:35:38;;;;;;;6.68;4.60;;;;;;;;;;2040650;28;20055;-94
2023/05/18 04:36:41;;;;;;;6.15;4.80;;;;;;;;;;2048348;28;20038;-95
2023/05/18 04:37:41;;;;;;;7.40;4.10;;;;;;;;;;2048802;29;20038;-94
2023/05/18 04:38:42;;;;;;;7.40;4.53;;;;;;;;;;2040761;29;20020;-95
2023/05/18 04:39:42;;;;;;;6.55;4.80;;;;;;;;;;2048746;29;20034;-93
2023/05/18 04:40:43;;;;;;;7.38;4.65;;;;;;;;;;2048676;28;20402;-93
2023/05/18 04:41:44;;;;;;;7.40;4.28;;;;;;;;;;1687126;29;10379444;-94
2023/05/18 04:42:46;;;;;;;7.45;4.43;;;;;;;;;;2040515;29;20437;-93
2023/05/18 04:43:47;;;;;;;7.45;4.40;;;;;;;;;;2040581;29;20119;-94
2023/05/18 04:44:51;;;;;;;7.35;5.20;;;;;;;;;;2040635;29;20023;-93
2023/05/18 04:45:51;;;;;;;7.38;4.47;;;;;;;;;;2048490;28;20042;-94
2023/05/18 04:46:52;;;;;;;7.13;4.88;;;;;;;;;;2048461;29;20019;-94
2023/05/18 04:47:53;;;;;;;7.07;4.45;;;;;;;;;;2048382;29;20416;-94
2023/05/18 04:48:56;;;;;;;6.80;4.50;;;;;;;;;;2040397;29;20024;-93
2023/05/18 04:49:57;;;;;;;8.25;4.53;;;;;;;;;;2040864;29;20023;-93
2023/05/18 04:50:58;;;;;;;6.22;4.68;;;;;;;;;;2048378;29;20057;-94
2023/05/18 04:51:58;;;;;;;7.82;4.55;;;;;;;;;;2048372;28;20037;-95
2023/05/18 04:53:01;;;;;;;10.23;5.35;;;;;;;;;;2048232;29;20202;-95
2023/05/18 04:54:02;;;;;;;11.48;5.93;;;;;;;;;;2048774;29;20490;-92
2023/05/18 04:55:02;;;;;;;9.60;5.35;;;;;;;;;;2040514;29;20114;-94
2023/05/18 04:56:03;;;;;;;11.48;5.20;;;;;;;;;;2040436;29;20110;-94
2023/05/18 04:57:04;;;;;;;7.50;6.18;;;;;;;;;;2040631;29;20045;-95
2023/05/18 04:58:04;;;;;;;8.40;5.57;;;;;;;;;;2048078;29;20050;-94
2023/05/18 04:59:05;;;;;;;9.43;5.72;;;;;;;;;;2048325;29;20059;-94
2023/05/18 05:00:08;;;;;;;10.73;5.72;;;;;;;;;;2040630;29;20020;-95
2023/05/18 05:01:09;;;;;;;12.73;6.18;;;;;;;;;;2048512;29;20094;-95
2023/05/18 05:02:09;;;;;;;9.07;5.65;;;;;;;;;;2041196;29;20042;-95
2023/05/18 05:03:10;;;;;;;8.98;5.50;;;;;;;;;;2040495;29;20079;-94
2023/05/18 05:04:11;;;;;;;11.35;6.20;;;;;;;;;;2048080;29;20090;-94
2023/05/18 05:05:11;;;;;;;11.23;5.90;;;;;;;;;;2048533;29;20471;-95
2023/05/18 05:06:14;;;;;;;10.18;5.93;;;;;;;;;;2040674;29;20100;-95
2023/05/18 05:07:15;;;;;;;8.88;5.38;;;;;;;;;;2040912;29;20028;-94
2023/05/18 05:08:15;;;;;;;9.52;5.95;;;;;;;;;;2048556;29;20047;-93
2023/05/18 05:09:16;;;;;;;10.95;5.50;;;;;;;;;;2040488;29;20411;-95
2023/05/18 05:10:18;;;;;;;7.20;5.80;;;;;;;;;;2040631;29;20206;-94
2023/05/18 05:11:18;;;;;;;8.88;5.63;;;;;;;;;;2040533;29;20506;-94
2023/05/18 05:12:37;;;;;;;8.90;5.55;;;;;;;;;;2040752;29;20047;-95
2023/05/18 05:13:38;;;;;;;9.07;5.22;;;;;;;;;;2044051;29;20367;-94
2023/05/18 05:14:38;;;;;;;9.05;5.57;;;;;;;;;;2049073;29;20074;-94
2023/05/18 05:15:41;;;;;;;7.47;5.63;;;;;;;;;;2042674;29;20107;-93
2023/05/18 05:17:21;;;;;;;11.25;5.93;;;;;;;;;;2045093;29;20028;-94
2023/05/18 05:18:22;;;;;;;12.38;6.05;;;;;;;;;;2045903;29;20027;-95
2023/05/18 05:19:32;;;;;;;9.99;6.09;;;;;;;;;;2015692;29;10334001;-95
2023/05/18 05:20:33;;;;;;;12.25;7.00;;;;;;;;;;2049982;28;20871;-96
2023/05/18 05:21:34;;;;;;;10.93;6.88;;;;;;;;;;2049141;29;20019;-95
2023/05/18 05:22:34;;;;;;;11.80;6.60;;;;;;;;;;2042461;29;20064;-95
2023/05/18 05:23:35;;;;;;;10.10;6.13;;;;;;;;;;2042399;29;20100;-96
2023/05/18 05:24:35;;;;;;;10.10;6.43;;;;;;;;;;2044864;29;20028;-93
2023/05/18 05:25:35;;;;;;;9.35;6.03;;;;;;;;;;2045333;29;20141;-96
2023/05/18 05:26:36;;;;;;;15.45;7.78;;;;;;;;;;2045168;29;20023;-92
2023/05/18 05:27:37;;;;;;;7.90;6.25;;;;;;;;;;2048654;29;20427;-94
2023/05/18 05:28:37;;;;;;;10.65;6.35;;;;;;;;;;2048332;29;20344;-93
2023/05/18 05:29:38;;;;;;;9.98;5.97;;;;;;;;;;2040743;29;20111;-94
2023/05/18 05:30:38;;;;;;;10.65;7.32;;;;;;;;;;2040943;29;20038;-94
2023/05/18 05:31:40;;;;;;;10.63;6.72;;;;;;;;;;2040622;29;20028;-95
2023/05/18 05:32:40;;;;;;;10.60;6.45;;;;;;;;;;2041099;29;20051;-93
2023/05/18 05:33:49;;;;;;;12.52;6.93;;;;;;;;;;2041514;29;20019;-94
2023/05/18 05:34:50;;;;;;;11.85;7.30;;;;;;;;;;2042210;29;20131;-95
2023/05/18 05:35:51;;;;;;;9.82;6.32;;;;;;;;;;2040828;29;20115;-94
2023/05/18 05:36:51;;;;;;;10.25;7.05;;;;;;;;;;2048307;29;20574;-95
2023/05/18 05:37:52;;;;;;;10.68;6.50;;;;;;;;;;2040733;29;20082;-95
2023/05/18 05:38:52;;;;;;;11.20;7.32;;;;;;;;;;2040705;29;20580;-96
2023/05/18 05:39:53;;;;;;;10.80;6.80;;;;;;;;;;2048197;29;20034;-95
2023/05/18 05:40:53;;;;;;;9.45;5.47;;;;;;;;;;2040464;29;20024;-96
2023/05/18 05:41:54;;;;;;;10.52;6.18;;;;;;;;;;2040107;29;20119;-96
2023/05/18 05:42:55;;;;;;;11.88;6.43;;;;;;;;;;2048497;29;20027;-95
2023/05/18 05:43:55;;;;;;;7.80;6.15;;;;;;;;;;2040671;29;20027;-94
2023/05/18 05:44:58;;;;;;;8.68;6.53;;;;;;;;;;2040393;29;20031;-94
2023/05/18 05:45:59;;;;;;;11.15;6.00;;;;;;;;;;2039983;29;20028;-94
2023/05/18 05:47:00;;;;;;;7.80;5.80;;;;;;;;;;2042117;28;20042;-96
2023/05/18 05:48:00;;;;;;;9.57;5.80;;;;;;;;;;2041900;29;20030;-95
2023/05/18 05:49:01;;;;;;;9.07;6.00;;;;;;;;;;2041986;29;20045;-94
2023/05/18 05:50:01;;;;;;;11.63;6.20;;;;;;;;;;2041916;29;20040;-95
2023/05/18 05:51:02;;;;;;;8.02;5.80;;;;;;;;;;2042318;29;20027;-94
2023/05/18 05:52:06;;;;;;;10.93;5.85;;;;;;;;;;2041660;29;20136;-95
2023/05/18 05:53:09;;;;;;;8.07;5.18;;;;;;;;;;2042485;29;20023;-94
2023/05/18 05:54:10;;;;;;;10.13;6.40;;;;;;;;;;2043038;29;20036;-95
2023/05/18 05:55:10;;;;;;;10.73;6.13;;;;;;;;;;2050421;29;20100;-94
2023/05/18 05:56:11;;;;;;;8.68;5.72;;;;;;;;;;2049880;29;20031;-95
2023/05/18 05:57:11;;;;;;;9.43;6.20;;;;;;;;;;2043251;29;20040;-95
2023/05/18 05:58:24;;;;;;;;;;;;;;;;;;;;;
2023/05/18 06:05:09;;;;;;;8.57;5.40;;;;;;;;;;2046184;29;20035;-95
2023/05/18 06:06:11;;;;;;;7.63;5.50;;;;;;;;;;2037499;29;20036;-95
2023/05/18 06:07:12;;;;;;;8.77;5.45;;;;;;;;;;2048734;28;20054;-89
2023/05/18 06:08:12;;;;;;;7.38;4.80;;;;;;;;;;2049086;29;20412;-89
2023/05/18 06:09:13;;;;;;;8.75;4.55;;;;;;;;;;2047987;29;20033;-90
2023/05/18 06:10:13;;;;;;;6.75;4.70;;;;;;;;;;2047901;29;20054;-90
2023/05/18 06:11:41;;;;;;;7.40;5.05;;;;;;;;;;2039635;29;20091;-91
2023/05/18 06:12:42;;;;;;;10.80;5.13;;;;;;;;;;2043599;29;20578;-90
2023/05/18 06:13:42;;;;;;;6.30;4.60;;;;;;;;;;2039776;29;20024;-90
2023/05/18 06:14:45;;;;;;;6.00;4.60;;;;;;;;;;2047474;29;20023;-88